Pagrindinis puslapis
METAR-TAF:

METAR-TAF

Oro uostai :

Chiang Rai, Tailandas

platuma: 19-57-08N, ilguma: 099-52-59E, Aukštis: 390 m

Dabartinis oras

Ataskaita buvo paskelbta 53 minutes, ne 14:00 UTC
Ramus vėjas
Temperatūra 21°C
Drėgmė 88%
Slėgis 1015 hPa
Matomumas 10 km arba daugiau
nėra debesų žemiau 1500 m ir nėra kamuolinių lietaus debesų

METAR: VTCT 191400Z 00000KT CAVOK 21/19 Q1015 NOSIG

Laikas: 21:53 (14:53 UTC)

Prognozė

Ataskaita buvo paskelbta 3 valandos ir 53 minutes, ne 11:00 UTC
Prognozė galioja nuo 19 metu 12 UTC su 20 metu 18 UTC
Vėjas 5 kt iš Pietų/Pietryčių
Matomumas 10 km arba daugiau
Mažai debesys ne aukštis 4000 ft

TAF: VTCT 191100Z 1912/2018 16005KT 9999 FEW040

Orai ataskaitas ir orų prognozės (METAR, TAF).

turimą stotys yra geltonos ir raudonos taškus žemėlapyje.

Perkelti pele per norėdami pamatyti stoties vardą.

Tada spustelėkite, norėdami matyti oro stebėjimo ir prognozės.

Norėdami pakeisti žemėlapį: spustelėkite ant žalios mygtukų su juodo kryžiaus žemyn,; žalią mygtuką su brūkšneliu, jei norite nutolinti; arba žalių rodyklių gretimoms žemėlapius.


METAR-TAF: